createdAt,value
2018-11-04T00:01:53.611Z,7.29
2018-11-04T00:04:21.749Z,7.31
2018-11-04T00:06:49.370Z,7.36
2018-11-04T00:09:17.251Z,7.29
2018-11-04T00:11:44.836Z,7.24
2018-11-04T00:14:12.817Z,7.32
2018-11-04T00:16:40.485Z,7.35
2018-11-04T00:19:08.363Z,7.45
2018-11-04T00:21:36.238Z,7.32
2018-11-04T00:24:04.494Z,7.50
2018-11-04T00:26:32.099Z,7.30
2018-11-04T00:28:59.663Z,6.94
2018-11-04T00:31:27.579Z,6.93
2018-11-04T00:33:55.105Z,7.21
2018-11-04T00:36:22.680Z,7.09
2018-11-04T00:38:50.276Z,7.11
2018-11-04T00:41:17.894Z,7.17
2018-11-04T00:43:45.493Z,7.10
2018-11-04T00:46:13.242Z,7.20
2018-11-04T00:48:40.914Z,7.07
2018-11-04T00:51:08.461Z,6.93
2018-11-04T00:53:36.076Z,7.11
2018-11-04T00:56:03.631Z,7.17
2018-11-04T00:58:31.227Z,7.05
2018-11-04T01:00:58.812Z,7.39
2018-11-04T01:03:26.516Z,7.36
2018-11-04T01:05:54.240Z,7.31
2018-11-04T01:08:22.014Z,7.35
2018-11-04T01:10:49.563Z,7.61
2018-11-04T01:13:17.146Z,7.49
2018-11-04T01:15:45.817Z,7.54
2018-11-04T01:18:15.438Z,7.65
2018-11-04T01:20:43.040Z,7.64
2018-11-04T01:23:10.603Z,7.41
2018-11-04T01:25:38.142Z,7.59
2018-11-04T01:28:05.710Z,7.55
2018-11-04T01:30:33.237Z,7.50
2018-11-04T01:33:00.830Z,7.36
2018-11-04T01:35:28.432Z,7.48
2018-11-04T01:37:56.154Z,7.50
2018-11-04T01:40:23.772Z,7.59
2018-11-04T01:42:51.428Z,7.53
2018-11-04T01:45:19.062Z,7.68
2018-11-04T01:47:46.640Z,7.67
2018-11-04T01:50:14.313Z,7.53
2018-11-04T01:52:41.895Z,7.30
2018-11-04T01:55:09.481Z,7.57
2018-11-04T01:57:37.042Z,7.33
2018-11-04T02:00:04.632Z,7.75
2018-11-04T02:02:32.147Z,7.71
2018-11-04T02:04:59.735Z,7.75
2018-11-04T02:07:27.280Z,7.55
2018-11-04T02:09:54.869Z,7.66
2018-11-04T02:12:22.406Z,7.31
2018-11-04T02:14:49.969Z,7.05
2018-11-04T02:17:17.539Z,7.10
2018-11-04T02:19:45.138Z,7.31
2018-11-04T02:22:12.713Z,7.14
2018-11-04T02:24:40.250Z,7.15
2018-11-04T02:27:07.808Z,7.40
2018-11-04T02:29:35.348Z,7.58
2018-11-04T02:32:02.958Z,7.69
2018-11-04T02:34:30.529Z,7.66
2018-11-04T02:36:58.255Z,7.81
2018-11-04T02:39:25.837Z,7.68
2018-11-04T02:41:53.383Z,7.77
2018-11-04T02:44:20.993Z,7.93
2018-11-04T02:46:48.624Z,7.71
2018-11-04T02:49:16.165Z,7.71
2018-11-04T02:51:43.683Z,7.90
2018-11-04T02:54:11.367Z,7.99
2018-11-04T02:56:39.137Z,8.07
2018-11-04T02:59:06.670Z,8.13
2018-11-04T03:01:34.228Z,8.12
2018-11-04T03:04:01.788Z,8.07
2018-11-04T03:06:29.432Z,8.03
2018-11-04T03:08:57.067Z,8.15
2018-11-04T03:11:24.607Z,8.05
2018-11-04T03:13:52.268Z,8.25
2018-11-04T03:16:20.691Z,8.10
2018-11-04T03:18:48.393Z,8.00
2018-11-04T03:21:15.925Z,7.94
2018-11-04T03:23:43.658Z,8.14
2018-11-04T03:26:11.200Z,8.00
2018-11-04T03:28:38.908Z,8.17
2018-11-04T03:31:06.629Z,8.25
2018-11-04T03:33:34.548Z,8.11
2018-11-04T03:36:02.151Z,8.04
2018-11-04T03:38:29.735Z,8.28
2018-11-04T03:40:57.364Z,8.29
2018-11-04T03:43:24.875Z,8.29
2018-11-04T03:45:52.436Z,8.19
2018-11-04T03:48:20.050Z,8.35
2018-11-04T03:50:47.586Z,8.43
2018-11-04T03:53:15.346Z,8.40
2018-11-04T03:55:43.023Z,8.42
2018-11-04T03:58:10.616Z,8.55
2018-11-04T04:00:38.248Z,8.41
2018-11-04T04:03:05.797Z,8.34
2018-11-04T04:05:33.419Z,8.39
2018-11-04T04:08:00.962Z,8.57
2018-11-04T04:10:29.273Z,8.57
2018-11-04T04:12:56.853Z,8.70
2018-11-04T04:15:25.494Z,8.70
2018-11-04T04:17:53.066Z,8.77
2018-11-04T04:20:20.666Z,8.70
2018-11-04T04:22:48.238Z,8.86
2018-11-04T04:25:15.813Z,8.89
2018-11-04T04:27:43.356Z,8.91
2018-11-04T04:30:10.940Z,8.86
2018-11-04T04:32:38.584Z,8.98
2018-11-04T04:35:06.180Z,8.91
2018-11-04T04:37:33.831Z,9.01
2018-11-04T04:40:01.400Z,8.98
2018-11-04T04:42:29.288Z,9.05
2018-11-04T04:44:56.974Z,9.13
2018-11-04T04:47:24.600Z,9.17
2018-11-04T04:49:52.125Z,9.21
2018-11-04T04:52:19.705Z,9.21
2018-11-04T04:54:47.275Z,9.09
2018-11-04T04:57:14.868Z,9.22
2018-11-04T04:59:42.464Z,9.29
2018-11-04T05:02:10.054Z,9.32
2018-11-04T05:04:37.748Z,9.39
2018-11-04T05:07:05.320Z,9.17
2018-11-04T05:09:32.987Z,9.35
2018-11-04T05:12:00.526Z,9.43
2018-11-04T05:14:28.235Z,9.46
2018-11-04T05:16:55.804Z,9.43
2018-11-04T05:19:23.337Z,9.49
2018-11-04T05:21:50.906Z,9.48
2018-11-04T05:24:18.687Z,9.61
2018-11-04T05:26:46.209Z,9.62
2018-11-04T05:29:13.891Z,9.59
2018-11-04T05:31:41.461Z,9.62
2018-11-04T05:34:09.025Z,9.71
2018-11-04T05:36:36.599Z,9.66
2018-11-04T05:39:04.150Z,9.77
2018-11-04T05:41:31.669Z,9.75
2018-11-04T05:43:59.240Z,9.83
2018-11-04T05:46:26.866Z,9.83
2018-11-04T05:48:54.423Z,9.81
2018-11-04T05:51:21.973Z,9.83
2018-11-04T05:53:49.545Z,9.81
2018-11-04T05:56:17.098Z,9.89
2018-11-04T05:58:44.687Z,9.79
2018-11-04T06:01:12.377Z,9.82
2018-11-04T06:03:40.363Z,9.79
2018-11-04T06:06:07.937Z,9.85
2018-11-04T06:08:35.491Z,9.91
2018-11-04T06:11:03.131Z,10.00
2018-11-04T06:13:30.680Z,9.92
2018-11-04T06:15:58.391Z,9.99
2018-11-04T06:18:25.917Z,9.96
2018-11-04T06:20:53.909Z,10.05
2018-11-04T06:23:21.466Z,10.14
2018-11-04T06:25:49.042Z,10.02
2018-11-04T06:28:16.590Z,10.05
2018-11-04T06:30:44.347Z,10.08
2018-11-04T06:33:11.877Z,10.13
2018-11-04T06:35:39.439Z,10.05
2018-11-04T06:38:06.999Z,10.17
2018-11-04T06:40:34.800Z,10.26
2018-11-04T06:43:02.349Z,10.26
2018-11-04T06:45:29.913Z,10.22
2018-11-04T06:47:57.507Z,10.30
2018-11-04T06:50:25.096Z,10.37
2018-11-04T06:52:52.714Z,10.26
2018-11-04T06:55:20.268Z,10.36
2018-11-04T06:57:47.826Z,10.40
2018-11-04T07:00:15.379Z,10.47
2018-11-04T07:02:43.124Z,10.29
2018-11-04T07:05:11.246Z,10.44
2018-11-04T07:07:42.637Z,10.47
2018-11-04T07:10:10.725Z,10.49
2018-11-04T07:12:38.726Z,10.51
2018-11-04T07:15:06.293Z,10.47
2018-11-04T07:17:33.920Z,10.53
2018-11-04T07:20:01.539Z,10.53
2018-11-04T07:22:29.142Z,10.56
2018-11-04T07:24:56.742Z,10.49
2018-11-04T07:27:24.368Z,10.52
2018-11-04T07:29:52.239Z,10.62
2018-11-04T07:32:20.010Z,10.51
2018-11-04T07:34:47.685Z,10.58
2018-11-04T07:37:15.900Z,10.42
2018-11-04T07:39:43.866Z,10.51
2018-11-04T07:42:11.705Z,10.53
2018-11-04T07:44:39.354Z,10.64
2018-11-04T07:47:06.984Z,10.66
2018-11-04T07:49:34.670Z,10.74
2018-11-04T07:52:02.311Z,10.60
2018-11-04T07:54:30.134Z,10.69
2018-11-04T07:56:58.057Z,10.69
2018-11-04T07:59:25.697Z,10.59
2018-11-04T08:01:53.676Z,10.67
2018-11-04T08:04:21.300Z,10.73
2018-11-04T08:06:50.361Z,10.79
2018-11-04T08:09:18.570Z,10.85
2018-11-04T08:11:46.354Z,10.82
2018-11-04T08:14:13.934Z,10.90
2018-11-04T08:16:41.895Z,10.95
2018-11-04T08:19:09.595Z,10.99
2018-11-04T08:21:37.243Z,10.85
2018-11-04T08:24:05.032Z,11.01
2018-11-04T08:26:32.766Z,11.02
2018-11-04T08:29:00.538Z,10.99
2018-11-04T08:31:28.245Z,11.10
2018-11-04T08:33:56.037Z,11.11
2018-11-04T08:36:23.841Z,11.15
2018-11-04T08:38:51.423Z,11.07
2018-11-04T08:41:19.085Z,10.95
2018-11-04T08:43:46.844Z,11.09
2018-11-04T08:46:14.672Z,11.06
2018-11-04T08:48:42.544Z,11.16
2018-11-04T08:51:10.098Z,11.07
2018-11-04T08:53:37.702Z,11.08
2018-11-04T08:56:05.268Z,11.15
2018-11-04T08:58:32.834Z,11.22
2018-11-04T09:01:00.368Z,11.28
2018-11-04T09:03:27.988Z,11.28
2018-11-04T09:05:55.519Z,11.20
2018-11-04T09:08:23.051Z,11.27
2018-11-04T09:10:50.700Z,11.27
2018-11-04T09:13:18.444Z,11.36
2018-11-04T09:15:46.000Z,11.40
2018-11-04T09:18:13.569Z,11.37
2018-11-04T09:20:41.102Z,11.45
2018-11-04T09:23:08.709Z,11.45
2018-11-04T09:25:36.277Z,11.50
2018-11-04T09:28:03.866Z,11.47
2018-11-04T09:30:31.534Z,11.46
2018-11-04T09:32:59.065Z,11.51
2018-11-04T09:35:26.995Z,11.52
2018-11-04T09:37:54.404Z,11.58
2018-11-04T09:40:21.938Z,11.60
2018-11-04T09:42:49.517Z,11.64
2018-11-04T09:45:17.083Z,11.67
2018-11-04T09:47:44.599Z,11.51
2018-11-04T09:50:12.144Z,11.66
2018-11-04T09:52:39.736Z,11.69
2018-11-04T09:55:07.407Z,11.70
2018-11-04T09:57:35.143Z,11.76
2018-11-04T10:00:02.994Z,11.75
2018-11-04T10:02:30.665Z,11.80
2018-11-04T10:04:58.311Z,11.70
2018-11-04T10:07:25.894Z,11.73
2018-11-04T10:09:53.691Z,11.76
2018-11-04T10:12:21.424Z,11.74
2018-11-04T10:14:49.010Z,11.76
2018-11-04T10:17:16.560Z,11.79
2018-11-04T10:19:44.305Z,11.89
2018-11-04T10:22:11.739Z,11.87
2018-11-04T10:24:39.325Z,11.94
2018-11-04T10:27:06.840Z,11.92
2018-11-04T10:29:34.382Z,11.97
2018-11-04T10:32:01.980Z,11.95
2018-11-04T10:34:29.576Z,12.01
2018-11-04T10:36:57.099Z,12.01
2018-11-04T10:39:24.665Z,12.05
2018-11-04T10:41:52.254Z,12.08
2018-11-04T10:44:19.855Z,12.05
2018-11-04T10:46:47.529Z,12.06
2018-11-04T10:49:15.231Z,12.10
2018-11-04T10:51:42.815Z,12.07
2018-11-04T10:54:10.341Z,12.04
2018-11-04T10:56:37.881Z,12.15
2018-11-04T10:59:05.930Z,12.20
2018-11-04T11:01:33.524Z,12.19
2018-11-04T11:04:01.174Z,12.27
2018-11-04T11:06:28.889Z,12.30
2018-11-04T11:08:56.422Z,12.35
2018-11-04T11:11:23.999Z,12.41
2018-11-04T11:13:51.541Z,12.44
2018-11-04T11:16:19.366Z,12.40
2018-11-04T11:18:47.132Z,12.35
2018-11-04T11:21:14.904Z,12.35
2018-11-04T11:23:42.682Z,12.43
2018-11-04T11:26:10.261Z,12.49
2018-11-04T11:28:37.811Z,12.57
2018-11-04T11:31:05.377Z,12.51
2018-11-04T11:33:32.974Z,12.55
2018-11-04T11:36:00.513Z,12.44
2018-11-04T11:38:28.144Z,12.61
2018-11-04T11:40:59.137Z,12.61
2018-11-04T11:43:26.758Z,12.62
2018-11-04T11:45:54.379Z,12.70
2018-11-04T11:48:21.997Z,12.70
2018-11-04T11:50:49.591Z,12.75
2018-11-04T11:53:17.200Z,12.78
2018-11-04T11:55:44.835Z,12.79
2018-11-04T11:58:12.366Z,12.81
2018-11-04T12:00:40.121Z,12.92
2018-11-04T12:03:07.705Z,13.08
2018-11-04T12:05:35.327Z,13.15
2018-11-04T12:08:02.903Z,13.18
2018-11-04T12:10:30.558Z,13.13
2018-11-04T12:12:58.097Z,13.14
2018-11-04T12:15:25.673Z,13.20
2018-11-04T12:17:53.309Z,13.17
2018-11-04T12:20:20.870Z,13.13
2018-11-04T12:22:48.664Z,13.09
2018-11-04T12:25:16.541Z,12.99
2018-11-04T12:27:44.125Z,13.20
2018-11-04T12:30:11.745Z,13.20
2018-11-04T12:32:39.324Z,13.11
2018-11-04T12:35:06.967Z,13.25
2018-11-04T12:37:34.545Z,13.27
2018-11-04T12:40:02.197Z,13.22
2018-11-04T12:42:29.960Z,13.30
2018-11-04T12:44:57.571Z,13.24
2018-11-04T12:47:25.088Z,13.27
2018-11-04T12:49:52.618Z,13.30
2018-11-04T12:52:20.508Z,13.34
2018-11-04T12:54:48.028Z,13.08
2018-11-04T12:57:15.608Z,13.18
2018-11-04T12:59:43.173Z,13.28
2018-11-04T13:02:10.947Z,13.28
2018-11-04T13:04:38.408Z,13.29
2018-11-04T13:07:06.006Z,13.28
2018-11-04T13:09:33.717Z,13.33
2018-11-04T13:12:01.283Z,13.26
2018-11-04T13:14:28.825Z,13.37
2018-11-04T13:16:56.552Z,13.30
2018-11-04T13:19:24.125Z,13.29
2018-11-04T13:21:51.782Z,13.31
2018-11-04T13:24:19.304Z,13.21
2018-11-04T13:26:46.894Z,13.28
2018-11-04T13:29:14.432Z,13.30
2018-11-04T13:31:42.013Z,13.36
2018-11-04T13:34:09.597Z,13.32
2018-11-04T13:36:37.140Z,13.39
2018-11-04T13:39:04.741Z,13.36
2018-11-04T13:41:32.343Z,13.39
2018-11-04T13:43:59.992Z,13.44
2018-11-04T13:46:27.574Z,13.38
2018-11-04T13:48:55.131Z,13.33
2018-11-04T13:51:22.815Z,13.30
2018-11-04T13:53:50.438Z,13.12
2018-11-04T13:56:18.087Z,13.37
2018-11-04T13:58:45.690Z,13.11
2018-11-04T14:01:13.291Z,12.90
2018-11-04T14:03:40.834Z,12.92
2018-11-04T14:06:08.420Z,13.01
2018-11-04T14:08:35.960Z,13.15
2018-11-04T14:11:03.506Z,13.15
2018-11-04T14:13:31.131Z,13.18
2018-11-04T14:15:58.699Z,13.19
2018-11-04T14:18:26.234Z,13.25
2018-11-04T14:20:59.831Z,13.26
2018-11-04T14:31:22.444Z,13.22
2018-11-04T14:33:50.188Z,13.19
2018-11-04T14:36:17.761Z,13.28
2018-11-04T14:38:45.316Z,13.29
2018-11-04T14:41:12.926Z,13.26
2018-11-04T14:43:45.466Z,13.22
2018-11-04T14:46:13.041Z,13.22
2018-11-04T14:48:40.767Z,13.11
2018-11-04T14:51:22.173Z,13.12
2018-11-04T14:59:23.424Z,13.23
2018-11-04T15:01:51.066Z,13.28
2018-11-04T15:04:18.566Z,13.05
2018-11-04T15:06:46.178Z,13.22
2018-11-04T15:09:19.493Z,13.31
2018-11-04T15:14:38.868Z,13.14
2018-11-04T15:17:06.445Z,12.76
2018-11-04T15:19:34.048Z,13.13
2018-11-04T15:22:01.635Z,13.10
2018-11-04T15:24:29.217Z,13.06
2018-11-04T15:26:56.803Z,13.23
2018-11-04T15:29:24.376Z,13.01
2018-11-04T15:31:51.915Z,13.08
2018-11-04T15:34:19.577Z,13.18
2018-11-04T15:36:47.087Z,13.14
2018-11-04T15:39:14.670Z,12.92
2018-11-04T15:41:42.259Z,13.13
2018-11-04T15:44:09.805Z,13.20
2018-11-04T15:46:37.383Z,13.10
2018-11-04T15:49:05.020Z,13.05
2018-11-04T15:51:33.241Z,13.12
2018-11-04T15:54:01.929Z,13.05
2018-11-04T15:56:29.989Z,13.13
2018-11-04T15:58:58.421Z,13.22
2018-11-04T16:01:26.260Z,13.04
2018-11-04T16:03:53.943Z,13.18
2018-11-04T16:06:21.552Z,13.25
2018-11-04T16:08:49.115Z,13.24
2018-11-04T16:11:16.971Z,13.28
2018-11-04T16:13:44.628Z,13.29
2018-11-04T16:16:12.353Z,13.27
2018-11-04T16:18:40.094Z,13.28
2018-11-04T16:21:07.670Z,13.29
2018-11-04T16:23:35.713Z,13.22
2018-11-04T16:26:03.634Z,13.18
2018-11-04T16:28:31.340Z,13.18
2018-11-04T16:30:58.942Z,13.14
2018-11-04T16:33:26.686Z,13.04
2018-11-04T16:35:54.211Z,13.00
2018-11-04T16:38:22.845Z,13.04
2018-11-04T16:40:50.419Z,13.02
2018-11-04T16:43:18.470Z,12.99
2018-11-04T16:45:46.240Z,12.90
2018-11-04T16:48:14.071Z,12.94
2018-11-04T16:50:46.171Z,12.97
2018-11-04T16:53:14.655Z,12.97
2018-11-04T17:01:04.233Z,12.83
2018-11-04T17:03:34.163Z,12.73
2018-11-04T17:06:01.827Z,12.71
2018-11-04T17:08:29.423Z,12.74
2018-11-04T17:10:57.047Z,12.74
2018-11-04T17:13:24.622Z,12.77
2018-11-04T17:15:52.313Z,12.86
2018-11-04T17:18:20.028Z,12.91
2018-11-04T17:20:47.566Z,12.92
2018-11-04T17:23:15.179Z,12.85
2018-11-04T17:25:42.802Z,12.72
2018-11-04T17:28:10.401Z,12.78
2018-11-04T17:30:38.024Z,12.79
2018-11-04T17:33:05.766Z,12.83
2018-11-04T17:35:33.348Z,12.80
2018-11-04T17:38:00.977Z,12.87
2018-11-04T17:40:28.528Z,12.80
2018-11-04T17:42:56.209Z,12.78
2018-11-04T17:45:23.775Z,12.58
2018-11-04T17:47:51.364Z,12.55
2018-11-04T17:50:18.903Z,12.58
2018-11-04T17:52:46.460Z,12.66
2018-11-04T17:55:14.018Z,12.41
2018-11-04T17:57:41.541Z,12.35
2018-11-04T18:00:09.129Z,12.55
2018-11-04T18:02:36.812Z,12.62
2018-11-04T18:05:04.407Z,12.63
2018-11-04T18:07:32.178Z,12.68
2018-11-04T18:09:59.832Z,12.73
2018-11-04T18:12:27.569Z,12.75
2018-11-04T18:14:55.294Z,12.77
2018-11-04T18:17:22.866Z,12.74
2018-11-04T18:19:50.604Z,12.73
2018-11-04T18:22:18.364Z,12.74
2018-11-04T18:24:45.903Z,12.71
2018-11-04T18:27:13.490Z,12.53
2018-11-04T18:29:41.046Z,12.61
2018-11-04T18:32:08.692Z,12.62
2018-11-04T18:34:36.195Z,12.64
2018-11-04T18:37:03.772Z,12.65
2018-11-04T18:39:31.285Z,12.54
2018-11-04T18:41:58.906Z,12.62
2018-11-04T18:44:26.510Z,12.63
2018-11-04T18:46:54.026Z,12.64
2018-11-04T18:49:21.572Z,12.39
2018-11-04T18:51:49.331Z,12.48
2018-11-04T18:54:16.895Z,12.55
2018-11-04T18:56:44.425Z,12.34
2018-11-04T18:59:12.067Z,12.42
2018-11-04T19:01:39.579Z,12.32
2018-11-04T19:04:07.131Z,12.41
2018-11-04T19:06:34.747Z,12.33
2018-11-04T19:09:02.290Z,12.31
2018-11-04T19:11:30.004Z,12.32
2018-11-04T19:13:57.708Z,12.27
2018-11-04T19:16:25.529Z,12.35
2018-11-04T19:18:53.390Z,12.43
2018-11-04T19:21:20.989Z,12.46
2018-11-04T19:23:48.555Z,12.12
2018-11-04T19:26:16.317Z,12.32
2018-11-04T19:28:44.490Z,12.25
2018-11-04T19:31:12.214Z,12.32
2018-11-04T19:33:43.388Z,12.27
2018-11-04T19:36:11.003Z,11.88
2018-11-04T19:38:38.557Z,12.14
2018-11-04T19:41:06.186Z,12.11
2018-11-04T19:43:33.779Z,11.83
2018-11-04T19:46:01.322Z,11.95
2018-11-04T19:48:30.134Z,12.05
2018-11-04T19:50:57.936Z,12.08
2018-11-04T19:53:25.683Z,12.11
2018-11-04T19:55:55.661Z,12.02
2018-11-04T19:58:23.325Z,12.07
2018-11-04T20:00:54.730Z,11.92
2018-11-04T20:03:22.318Z,11.94
2018-11-04T20:05:50.016Z,11.96
2018-11-04T20:08:17.582Z,11.95
2018-11-04T20:10:46.549Z,11.95
2018-11-04T20:13:14.228Z,11.96
2018-11-04T20:15:41.776Z,11.92
2018-11-04T20:18:09.353Z,11.92
2018-11-04T20:20:36.936Z,11.86
2018-11-04T20:23:04.519Z,11.78
2018-11-04T20:25:37.711Z,11.76
2018-11-04T20:28:06.623Z,11.66
2018-11-04T20:30:34.153Z,11.68
2018-11-04T20:33:01.725Z,11.76
2018-11-04T20:35:29.276Z,11.79
2018-11-04T20:37:56.860Z,11.81
2018-11-04T20:40:39.285Z,11.77
2018-11-04T20:43:06.897Z,11.80
2018-11-04T20:45:34.425Z,11.74
2018-11-04T20:48:02.044Z,11.62
2018-11-04T20:50:46.249Z,11.70
2018-11-04T20:53:14.420Z,11.47
2018-11-04T20:55:42.225Z,11.59
2018-11-04T20:58:09.869Z,11.43
2018-11-04T21:00:37.432Z,11.57
2018-11-04T21:03:09.628Z,11.60
2018-11-04T21:05:37.179Z,11.61
2018-11-04T21:08:04.793Z,11.60
2018-11-04T21:10:32.344Z,11.48
2018-11-04T21:13:00.117Z,11.34
2018-11-04T21:15:27.680Z,11.44
2018-11-04T21:17:55.442Z,11.49
2018-11-04T21:20:23.069Z,11.54
2018-11-04T21:22:50.730Z,11.57
2018-11-04T21:25:18.347Z,11.49
2018-11-04T21:27:45.924Z,11.23
2018-11-04T21:30:13.668Z,11.24
2018-11-04T21:32:41.237Z,11.25
2018-11-04T21:35:08.791Z,11.27
2018-11-04T21:37:36.367Z,11.18
2018-11-04T21:40:04.169Z,11.14
2018-11-04T21:42:32.147Z,11.13
2018-11-04T21:44:59.712Z,11.33
2018-11-04T21:47:29.260Z,11.10
2018-11-04T21:49:56.856Z,11.26
2018-11-04T21:52:24.391Z,11.18
2018-11-04T21:54:53.931Z,10.93
2018-11-04T21:57:21.478Z,11.13
2018-11-04T21:59:49.057Z,10.97
2018-11-04T22:02:16.851Z,10.99
2018-11-04T22:04:44.773Z,11.12
2018-11-04T22:07:12.388Z,11.08
2018-11-04T22:09:39.948Z,11.24
2018-11-04T22:12:07.523Z,11.24
2018-11-04T22:14:35.100Z,11.23
2018-11-04T22:17:03.682Z,11.29
2018-11-04T22:19:31.272Z,11.26
2018-11-04T22:21:58.799Z,11.20
2018-11-04T22:24:26.356Z,10.85
2018-11-04T22:26:53.923Z,11.01
2018-11-04T22:29:21.466Z,11.11
2018-11-04T22:31:48.989Z,11.08
2018-11-04T22:34:16.560Z,11.11
2018-11-04T22:36:44.200Z,11.11
2018-11-04T22:39:11.701Z,11.14
2018-11-04T22:41:39.278Z,11.12
2018-11-04T22:44:06.984Z,11.07
2018-11-04T22:46:34.758Z,11.11
2018-11-04T22:49:02.294Z,11.05
2018-11-04T22:51:29.989Z,10.71
2018-11-04T22:53:57.562Z,10.81
2018-11-04T22:56:25.124Z,10.56
2018-11-04T22:58:52.700Z,10.27
2018-11-04T23:01:20.263Z,10.24
2018-11-04T23:03:47.878Z,10.53
2018-11-04T23:06:15.404Z,10.67
2018-11-04T23:08:43.093Z,10.72
2018-11-04T23:11:10.700Z,10.74
2018-11-04T23:13:38.346Z,10.63
2018-11-04T23:16:05.876Z,10.44
2018-11-04T23:18:33.663Z,10.61
2018-11-04T23:21:01.145Z,10.67
2018-11-04T23:23:28.684Z,10.66
2018-11-04T23:25:56.255Z,10.61
2018-11-04T23:28:24.032Z,10.07
2018-11-04T23:30:51.543Z,9.99
2018-11-04T23:33:19.142Z,10.10
2018-11-04T23:35:49.525Z,10.25
2018-11-04T23:38:17.067Z,10.41
2018-11-04T23:40:44.627Z,10.49
2018-11-04T23:43:12.190Z,10.55
2018-11-04T23:45:39.905Z,10.60
2018-11-04T23:48:07.467Z,10.66
2018-11-04T23:50:35.093Z,10.67
2018-11-04T23:53:02.675Z,10.68
2018-11-04T23:55:30.266Z,10.65
2018-11-04T23:57:57.852Z,10.65
